createdAt,value
2022-10-11T00:01:59.967Z,12.60
2022-10-11T00:04:26.519Z,14.10
2022-10-11T00:06:53.026Z,16.10
2022-10-11T00:09:19.557Z,20.60
2022-10-11T00:11:46.090Z,22.58
2022-10-11T00:14:12.649Z,20.50
2022-10-11T00:16:40.505Z,19.70
2022-10-11T00:19:07.047Z,20.92
2022-10-11T00:21:33.597Z,14.10
2022-10-11T00:24:00.113Z,13.65
2022-10-11T00:26:26.655Z,15.57
2022-10-11T00:28:53.256Z,15.75
2022-10-11T00:31:19.980Z,14.68
2022-10-11T00:33:47.912Z,14.82
2022-10-11T00:36:14.633Z,20.98
2022-10-11T00:38:41.551Z,15.35
2022-10-11T00:41:08.100Z,15.75
2022-10-11T00:43:34.768Z,14.20
2022-10-11T00:46:24.806Z,15.82
2022-10-11T00:48:58.389Z,13.88
2022-10-11T00:51:34.803Z,15.55
2022-10-11T00:54:02.475Z,17.90
2022-10-11T00:56:33.151Z,18.15
2022-10-11T00:59:02.454Z,14.27
2022-10-11T01:01:29.072Z,17.73
2022-10-11T01:03:57.350Z,16.77
2022-10-11T01:06:24.091Z,15.43
2022-10-11T01:08:51.977Z,17.25
2022-10-11T01:11:22.955Z,14.98
2022-10-11T01:14:07.587Z,15.17
2022-10-11T01:16:37.924Z,12.38
2022-10-11T01:19:21.724Z,17.30
2022-10-11T01:21:52.905Z,13.68
2022-10-11T01:24:55.208Z,20.67
2022-10-11T01:30:24.233Z,15.95
2022-10-11T01:33:02.798Z,13.05
2022-10-11T01:35:38.259Z,12.90
2022-10-11T01:38:11.353Z,13.95
2022-10-11T01:40:42.916Z,15.95
2022-10-11T01:43:10.243Z,13.88
2022-10-11T01:45:38.423Z,14.30
2022-10-11T01:48:07.492Z,13.25
2022-10-11T01:50:39.436Z,20.25
2022-10-11T01:55:47.200Z,15.00
2022-10-11T01:58:22.683Z,12.52
2022-10-11T02:00:58.006Z,12.35
2022-10-11T02:03:33.674Z,15.18
2022-10-11T02:06:08.784Z,13.95
2022-10-11T02:08:41.908Z,13.20
2022-10-11T02:11:16.089Z,16.80
2022-10-11T02:13:47.092Z,17.15
2022-10-11T02:16:20.586Z,14.47
2022-10-11T02:18:50.228Z,15.35
2022-10-11T02:21:20.651Z,18.85
2022-10-11T02:23:51.078Z,15.45
2022-10-11T02:26:21.725Z,17.02
2022-10-11T02:28:51.129Z,13.57
2022-10-11T02:31:20.472Z,17.83
2022-10-11T02:33:52.442Z,17.52
2022-10-11T02:38:54.693Z,19.52
2022-10-11T02:41:25.522Z,21.45
2022-10-11T02:43:55.907Z,20.45
2022-10-11T02:46:25.041Z,18.27
2022-10-11T02:48:52.090Z,22.77
2022-10-11T02:51:18.640Z,15.65
2022-10-11T02:53:45.164Z,19.02
2022-10-11T02:56:11.658Z,14.80
2022-10-11T02:58:38.178Z,16.27
2022-10-11T03:01:04.816Z,18.27
2022-10-11T03:03:32.710Z,15.88
2022-10-11T03:06:00.083Z,14.55
2022-10-11T03:08:26.755Z,19.88
2022-10-11T03:10:53.340Z,12.57
2022-10-11T03:13:19.921Z,13.18
2022-10-11T03:15:49.366Z,13.13
2022-10-11T03:18:16.079Z,15.00
2022-10-11T03:20:44.174Z,16.08
2022-10-11T03:23:11.045Z,21.45
2022-10-11T03:25:37.625Z,337.58
2022-10-11T03:28:04.579Z,386.40
2022-10-11T03:30:31.147Z,230.85
2022-10-11T03:32:57.927Z,189.93
2022-10-11T03:35:24.466Z,91.93
2022-10-11T03:37:52.410Z,198.40
2022-10-11T03:40:18.980Z,170.20
2022-10-11T03:42:45.519Z,148.65
2022-10-11T03:45:12.087Z,49.08
2022-10-11T03:47:39.780Z,54.20
2022-10-11T03:50:07.855Z,36.10
2022-10-11T03:52:34.519Z,19.95
2022-10-11T03:55:02.498Z,21.95
2022-10-11T03:57:29.063Z,17.92
2022-10-11T03:59:55.614Z,14.45
2022-10-11T04:02:22.156Z,20.10
2022-10-11T04:04:48.765Z,23.30
2022-10-11T04:07:15.323Z,14.77
2022-10-11T04:09:41.908Z,14.80
2022-10-11T04:12:09.786Z,15.15
2022-10-11T04:14:36.335Z,15.55
2022-10-11T04:17:02.861Z,17.63
2022-10-11T04:19:29.411Z,15.52
2022-10-11T04:21:55.984Z,19.83
2022-10-11T04:24:22.572Z,15.98
2022-10-11T04:26:49.112Z,14.35
2022-10-11T04:29:17.039Z,14.20
2022-10-11T04:31:43.589Z,15.07
2022-10-11T04:34:10.139Z,17.73
2022-10-11T04:36:36.706Z,13.88
2022-10-11T04:39:03.348Z,14.32
2022-10-11T04:41:29.890Z,19.80
2022-10-11T04:43:56.624Z,13.05
2022-10-11T04:46:24.798Z,17.90
2022-10-11T04:48:51.574Z,11.80
2022-10-11T04:51:18.802Z,18.83
2022-10-11T04:53:45.333Z,17.85
2022-10-11T04:56:11.982Z,14.00
2022-10-11T04:58:39.043Z,10.25
2022-10-11T05:01:05.580Z,13.65
2022-10-11T05:03:33.815Z,13.00
2022-10-11T05:06:04.656Z,14.32
2022-10-11T05:08:32.503Z,11.57
2022-10-11T05:11:01.131Z,14.20
2022-10-11T05:13:28.800Z,16.25
2022-10-11T05:15:55.732Z,16.65
2022-10-11T05:18:22.856Z,11.50
2022-10-11T05:20:58.695Z,14.35
2022-10-11T05:23:25.228Z,11.88
2022-10-11T05:25:51.754Z,10.77
2022-10-11T05:28:18.329Z,15.65
2022-10-11T05:30:44.911Z,14.27
2022-10-11T05:33:11.693Z,12.52
2022-10-11T05:35:38.241Z,14.27
2022-10-11T05:38:06.124Z,14.15
2022-10-11T05:40:32.666Z,12.15
2022-10-11T05:42:59.256Z,18.55
2022-10-11T05:45:25.801Z,18.33
2022-10-11T05:47:52.347Z,15.35
2022-10-11T05:50:24.028Z,14.73
2022-10-11T05:52:50.974Z,21.33
2022-10-11T05:55:18.856Z,17.80
2022-10-11T05:57:45.414Z,20.42
2022-10-11T06:00:12.690Z,20.20
2022-10-11T06:02:39.314Z,19.70
2022-10-11T06:05:06.274Z,24.70
2022-10-11T06:07:35.187Z,20.45
2022-10-11T06:10:01.754Z,15.20
2022-10-11T06:12:30.323Z,18.35
2022-10-11T06:14:57.565Z,19.33
2022-10-11T06:17:24.147Z,17.45
2022-10-11T06:19:50.711Z,18.90
2022-10-11T06:22:17.399Z,22.48
2022-10-11T06:24:44.153Z,17.15
2022-10-11T06:27:10.695Z,23.17
2022-10-11T06:29:38.639Z,20.55
2022-10-11T06:32:05.504Z,16.38
2022-10-11T06:34:32.069Z,16.02
2022-10-11T06:36:58.613Z,14.95
2022-10-11T06:39:25.136Z,15.27
2022-10-11T06:41:51.655Z,15.27
2022-10-11T06:44:18.190Z,21.05
2022-10-11T06:46:46.060Z,21.63
2022-10-11T06:49:12.682Z,20.40
2022-10-11T06:51:39.212Z,23.90
2022-10-11T06:54:05.898Z,20.08
2022-10-11T06:56:32.430Z,18.55
2022-10-11T06:58:59.836Z,18.17
2022-10-11T07:01:27.213Z,23.02
2022-10-11T07:03:57.499Z,24.58
2022-10-11T07:06:26.386Z,18.65
2022-10-11T07:08:53.356Z,22.75
2022-10-11T07:11:21.990Z,23.00
2022-10-11T07:13:50.045Z,23.80
2022-10-11T07:16:16.632Z,19.13
2022-10-11T07:18:43.266Z,20.45
2022-10-11T07:21:15.035Z,21.83
2022-10-11T07:23:42.565Z,18.10
2022-10-11T07:26:11.066Z,24.77
2022-10-11T07:28:39.040Z,21.92
2022-10-11T07:31:06.996Z,22.40
2022-10-11T07:33:33.998Z,28.52
2022-10-11T07:36:00.597Z,27.50
2022-10-11T07:38:28.517Z,28.23
2022-10-11T07:40:55.169Z,22.55
2022-10-11T07:43:21.680Z,20.98
2022-10-11T07:45:51.297Z,24.63
2022-10-11T07:48:17.803Z,22.25
2022-10-11T07:50:44.361Z,22.50
2022-10-11T07:53:10.912Z,24.60
2022-10-11T07:55:39.132Z,24.05
2022-10-11T07:58:06.474Z,25.58
2022-10-11T08:00:33.414Z,28.67
2022-10-11T08:03:01.967Z,28.02
2022-10-11T08:05:29.058Z,27.88
2022-10-11T08:07:55.615Z,26.90
2022-10-11T08:10:22.267Z,24.73
2022-10-11T08:12:50.219Z,25.58
2022-10-11T08:15:17.066Z,26.45
2022-10-11T08:17:43.661Z,24.20
2022-10-11T08:20:10.589Z,38.35
2022-10-11T08:22:37.149Z,26.02
2022-10-11T08:25:04.303Z,27.35
2022-10-11T08:27:30.830Z,27.27
2022-10-11T08:29:58.698Z,28.55
2022-10-11T08:32:25.250Z,26.33
2022-10-11T08:34:51.796Z,30.13
2022-10-11T08:37:18.320Z,24.58
2022-10-11T08:39:44.874Z,28.33
2022-10-11T08:42:15.134Z,31.10
2022-10-11T08:45:09.515Z,28.75
2022-10-11T08:47:37.461Z,33.70
2022-10-11T08:50:05.015Z,27.92
2022-10-11T08:52:44.706Z,28.77
2022-10-11T08:55:19.114Z,22.20
2022-10-11T08:57:51.915Z,27.25
2022-10-11T09:00:19.912Z,26.42
2022-10-11T09:03:08.023Z,25.33
2022-10-11T09:05:39.442Z,27.63
2022-10-11T09:08:11.741Z,28.30
2022-10-11T09:10:53.306Z,25.23
2022-10-11T09:13:30.762Z,22.50
2022-10-11T09:16:09.323Z,29.75
2022-10-11T09:18:52.922Z,23.67
2022-10-11T09:21:32.283Z,21.60
2022-10-11T09:24:13.095Z,24.70
2022-10-11T09:26:47.659Z,24.65
2022-10-11T09:29:21.548Z,24.15
2022-10-11T09:31:52.115Z,21.88
2022-10-11T09:34:23.485Z,27.65
2022-10-11T09:36:54.951Z,22.83
2022-10-11T09:39:29.047Z,28.38
2022-10-11T09:42:00.265Z,20.55
2022-10-11T09:44:29.223Z,21.63
2022-10-11T09:46:57.258Z,25.27
2022-10-11T09:49:31.804Z,22.95
2022-10-11T09:52:01.870Z,22.55
2022-10-11T09:54:39.919Z,21.65
2022-10-11T09:57:06.679Z,20.08
2022-10-11T09:59:34.682Z,20.65
2022-10-11T10:02:21.656Z,18.35
2022-10-11T10:05:01.867Z,20.20
2022-10-11T10:07:29.917Z,17.35
2022-10-11T10:09:56.728Z,12.38
2022-10-11T10:12:26.993Z,19.80
2022-10-11T10:15:04.979Z,22.15
2022-10-11T10:17:32.219Z,15.32
2022-10-11T10:20:00.334Z,15.25
2022-10-11T10:22:29.381Z,19.90
2022-10-11T10:24:58.092Z,15.55
2022-10-11T10:27:26.261Z,14.82
2022-10-11T10:30:12.975Z,17.88
2022-10-11T10:32:48.673Z,16.50
2022-10-11T10:35:26.859Z,19.02
2022-10-11T10:38:03.719Z,15.25
2022-10-11T10:40:39.442Z,23.10
2022-10-11T10:43:06.182Z,15.02
2022-10-11T10:45:42.750Z,21.55
2022-10-11T10:48:19.843Z,17.98
2022-10-11T10:50:55.726Z,14.07
2022-10-11T10:53:29.434Z,12.65
2022-10-11T10:56:05.850Z,25.67
2022-10-11T10:58:55.440Z,18.00
2022-10-11T11:01:26.411Z,20.17
2022-10-11T11:04:00.078Z,14.55
2022-10-11T11:06:37.007Z,14.35
2022-10-11T11:09:20.671Z,16.05
2022-10-11T11:11:59.339Z,20.45
2022-10-11T11:14:39.958Z,16.80
2022-10-11T11:17:18.766Z,21.85
2022-10-11T11:19:59.712Z,15.70
2022-10-11T11:22:37.567Z,14.02
2022-10-11T11:25:17.478Z,18.67
2022-10-11T11:27:55.524Z,18.30
2022-10-11T11:30:24.523Z,19.10
2022-10-11T11:33:03.926Z,22.75
2022-10-11T11:35:37.178Z,20.73
2022-10-11T11:38:13.989Z,13.10
2022-10-11T11:40:43.694Z,20.63
2022-10-11T11:43:18.606Z,18.00
2022-10-11T11:45:48.431Z,20.58
2022-10-11T11:48:19.027Z,12.90
2022-10-11T11:50:51.251Z,21.65
2022-10-11T11:53:23.434Z,24.52
2022-10-11T11:55:57.183Z,16.65
2022-10-11T11:58:34.471Z,20.35
2022-10-11T12:01:07.837Z,19.17
2022-10-11T12:03:41.787Z,16.55
2022-10-11T12:06:29.117Z,15.93
2022-10-11T12:09:02.218Z,16.05
2022-10-11T12:11:38.453Z,11.82
2022-10-11T12:14:16.982Z,17.80
2022-10-11T12:17:12.761Z,14.60
2022-10-11T12:19:41.852Z,18.40
2022-10-11T12:22:35.495Z,16.58
2022-10-11T12:25:32.690Z,19.13
2022-10-11T12:28:02.235Z,12.75
2022-10-11T12:30:51.773Z,19.38
2022-10-11T12:33:21.277Z,11.32
2022-10-11T12:35:57.063Z,20.95
2022-10-11T12:38:25.343Z,24.70
2022-10-11T12:40:54.526Z,15.27
2022-10-11T12:43:29.014Z,18.70
2022-10-11T12:45:55.624Z,18.75
2022-10-11T12:48:47.377Z,18.50
2022-10-11T12:51:29.379Z,15.45
2022-10-11T12:54:38.249Z,22.38
2022-10-11T12:57:33.574Z,20.35
2022-10-11T13:00:17.020Z,15.98
2022-10-11T13:02:44.357Z,15.07
2022-10-11T13:05:20.247Z,12.55
2022-10-11T13:07:47.120Z,15.18
2022-10-11T13:10:15.242Z,17.05
2022-10-11T13:12:46.759Z,17.00
2022-10-11T13:15:16.430Z,18.65
2022-10-11T13:17:43.334Z,20.05
2022-10-11T13:20:17.573Z,17.20
2022-10-11T13:22:45.998Z,13.50
2022-10-11T13:25:16.932Z,12.05
2022-10-11T13:27:45.470Z,19.57
2022-10-11T13:30:18.997Z,15.13
2022-10-11T13:32:46.020Z,15.10
2022-10-11T13:35:21.001Z,21.50
2022-10-11T13:37:50.560Z,17.25
2022-10-11T13:40:19.504Z,15.60
2022-10-11T13:42:49.176Z,14.85
2022-10-11T13:45:18.895Z,18.92
2022-10-11T13:47:46.907Z,16.98
2022-10-11T13:50:21.911Z,13.57
2022-10-11T13:52:53.987Z,15.77
2022-10-11T13:55:26.533Z,18.08
2022-10-11T13:57:55.119Z,18.95
2022-10-11T14:00:29.483Z,14.02
2022-10-11T14:03:00.106Z,20.08
2022-10-11T14:05:31.379Z,12.95
2022-10-11T14:08:00.673Z,23.23
2022-10-11T14:10:27.689Z,17.25
2022-10-11T14:13:02.174Z,17.35
2022-10-11T14:15:30.766Z,11.18
2022-10-11T14:17:58.443Z,14.85
2022-10-11T14:20:33.433Z,15.02
2022-10-11T14:23:00.043Z,20.88
2022-10-11T14:25:26.660Z,16.63
2022-10-11T14:27:53.211Z,18.92
2022-10-11T14:30:26.418Z,20.17
2022-10-11T14:32:55.338Z,13.43
2022-10-11T14:35:24.294Z,14.63
2022-10-11T14:37:51.619Z,19.65
2022-10-11T14:40:20.288Z,17.17
2022-10-11T14:42:47.249Z,15.55
2022-10-11T14:45:13.870Z,17.73
2022-10-11T14:47:43.132Z,17.55
2022-10-11T14:50:30.085Z,15.18
2022-10-11T14:52:56.927Z,13.20
2022-10-11T14:55:23.937Z,15.30
2022-10-11T14:57:50.514Z,23.52
2022-10-11T15:00:20.755Z,17.92
2022-10-11T15:02:48.704Z,12.23
2022-10-11T15:05:15.264Z,18.20
2022-10-11T15:07:41.824Z,22.90
2022-10-11T15:10:18.745Z,23.92
2022-10-11T15:12:45.492Z,18.88
2022-10-11T15:15:16.125Z,11.65
2022-10-11T15:17:43.392Z,15.88
2022-10-11T15:20:20.389Z,15.05
2022-10-11T15:22:47.067Z,16.40
2022-10-11T15:25:13.902Z,17.17
2022-10-11T15:27:40.461Z,15.85
2022-10-11T15:30:13.335Z,13.23
2022-10-11T15:32:39.910Z,12.88
2022-10-11T15:35:06.950Z,17.10
2022-10-11T15:37:37.370Z,15.05
2022-10-11T15:40:15.670Z,13.65
2022-10-11T15:42:42.581Z,20.50
2022-10-11T15:45:09.695Z,14.27
2022-10-11T15:47:36.241Z,16.13
2022-10-11T15:50:03.345Z,23.58
2022-10-11T15:52:29.890Z,20.17
2022-10-11T15:54:57.755Z,21.50
2022-10-11T15:57:24.311Z,17.05
2022-10-11T15:59:50.880Z,16.92
2022-10-11T16:02:17.422Z,18.52
2022-10-11T16:04:43.939Z,18.63
2022-10-11T16:07:10.473Z,20.88
2022-10-11T16:09:37.004Z,17.27
2022-10-11T16:12:05.279Z,17.13
2022-10-11T16:14:31.849Z,24.45
2022-10-11T16:17:01.043Z,17.73
2022-10-11T16:19:27.585Z,22.35
2022-10-11T16:21:54.127Z,13.57
2022-10-11T16:24:20.695Z,23.23
2022-10-11T16:26:47.414Z,18.95
2022-10-11T16:29:15.411Z,23.73
2022-10-11T16:31:41.918Z,23.30
2022-10-11T16:34:08.458Z,20.50
2022-10-11T16:36:35.006Z,43.38
2022-10-11T16:39:04.531Z,24.33
2022-10-11T16:41:31.086Z,32.55
2022-10-11T16:43:57.663Z,20.27
2022-10-11T16:46:25.542Z,20.77
2022-10-11T16:48:54.899Z,22.08
2022-10-11T16:51:21.603Z,18.50
2022-10-11T16:53:48.161Z,23.38
2022-10-11T16:56:14.686Z,26.20
2022-10-11T16:58:41.393Z,19.45
2022-10-11T17:01:09.991Z,19.88
2022-10-11T17:03:38.724Z,20.70
2022-10-11T17:06:06.362Z,20.65
2022-10-11T17:08:33.247Z,24.30
2022-10-11T17:10:59.812Z,23.25
2022-10-11T17:13:26.765Z,18.73
2022-10-11T17:15:53.282Z,28.13
2022-10-11T17:18:19.846Z,20.98
2022-10-11T17:20:47.725Z,21.65
2022-10-11T17:23:14.371Z,21.60
2022-10-11T17:25:41.993Z,20.63
2022-10-11T17:28:08.663Z,22.63
2022-10-11T17:30:35.398Z,26.35
2022-10-11T17:33:01.938Z,22.48
2022-10-11T17:35:31.139Z,24.38
2022-10-11T17:38:02.440Z,23.77
2022-10-11T17:40:32.423Z,20.98
2022-10-11T17:42:58.973Z,18.50
2022-10-11T17:45:25.601Z,28.92
2022-10-11T17:47:52.120Z,18.83
2022-10-11T17:50:18.668Z,22.45
2022-10-11T17:52:45.275Z,19.48
2022-10-11T17:55:13.223Z,31.25
2022-10-11T17:57:39.752Z,27.92
2022-10-11T18:00:07.501Z,25.98
2022-10-11T18:02:34.049Z,26.83
2022-10-11T18:05:00.570Z,24.55
2022-10-11T18:07:27.085Z,28.52
2022-10-11T18:09:53.631Z,27.33
2022-10-11T18:12:21.537Z,27.60
2022-10-11T18:14:48.071Z,26.05
2022-10-11T18:17:14.697Z,20.20
2022-10-11T18:19:41.253Z,24.52
2022-10-11T18:22:07.787Z,31.13
2022-10-11T18:24:34.715Z,21.40
2022-10-11T18:27:01.311Z,26.05
2022-10-11T18:29:29.192Z,25.50
2022-10-11T18:31:55.733Z,29.38
2022-10-11T18:34:22.278Z,25.98
2022-10-11T18:36:48.822Z,20.95
2022-10-11T18:39:15.412Z,26.30
2022-10-11T18:41:42.982Z,20.92
2022-10-11T18:44:13.408Z,23.25
2022-10-11T18:46:41.487Z,20.75
2022-10-11T18:49:08.237Z,26.77
2022-10-11T18:51:36.615Z,20.85
2022-10-11T18:54:04.500Z,21.88
2022-10-11T18:56:32.868Z,34.65
2022-10-11T18:58:59.528Z,32.30
2022-10-11T19:01:28.522Z,28.00
2022-10-11T19:03:58.592Z,26.17
2022-10-11T19:06:28.453Z,26.50
2022-10-11T19:08:59.027Z,25.30
2022-10-11T19:11:25.586Z,29.58
2022-10-11T19:13:55.595Z,23.88
2022-10-11T19:16:22.549Z,31.25
2022-10-11T19:18:49.775Z,24.13
2022-10-11T19:21:18.281Z,24.00
2022-10-11T19:23:46.633Z,26.75
2022-10-11T19:26:15.285Z,25.35
2022-10-11T19:28:42.415Z,24.85
2022-10-11T19:31:10.868Z,20.42
2022-10-11T19:33:37.634Z,25.13
2022-10-11T19:36:05.962Z,22.73
2022-10-11T19:38:35.438Z,29.65
2022-10-11T19:41:02.761Z,26.17
2022-10-11T19:43:29.432Z,25.85
2022-10-11T19:45:59.842Z,27.85
2022-10-11T19:48:26.453Z,31.40
2022-10-11T19:50:53.022Z,46.60
2022-10-11T19:53:19.578Z,55.47
2022-10-11T19:55:47.507Z,52.55
2022-10-11T19:58:14.062Z,52.08
2022-10-11T20:00:40.621Z,49.72
2022-10-11T20:03:07.197Z,40.75
2022-10-11T20:05:36.571Z,49.88
2022-10-11T20:08:03.463Z,65.65
2022-10-11T20:10:30.012Z,63.53
2022-10-11T20:12:58.028Z,63.40
2022-10-11T20:15:24.723Z,49.83
2022-10-11T20:17:51.289Z,42.50
2022-10-11T20:20:18.774Z,25.30
2022-10-11T20:22:45.351Z,35.35
2022-10-11T20:25:12.028Z,31.35
2022-10-11T20:27:39.234Z,28.98
2022-10-11T20:30:07.955Z,30.80
2022-10-11T20:32:34.533Z,31.02
2022-10-11T20:35:01.097Z,33.13
2022-10-11T20:37:27.624Z,32.03
2022-10-11T20:39:54.179Z,34.63
2022-10-11T20:42:20.764Z,31.20
2022-10-11T20:44:47.381Z,35.80
2022-10-11T20:47:15.508Z,32.47
2022-10-11T20:49:42.037Z,29.98
2022-10-11T20:52:08.598Z,30.48
2022-10-11T20:54:35.174Z,35.75
2022-10-11T20:57:01.703Z,30.85
2022-10-11T20:59:28.262Z,33.30
2022-10-11T21:01:54.779Z,34.83
2022-10-11T21:04:22.718Z,28.30
2022-10-11T21:06:49.502Z,30.85
2022-10-11T21:09:16.841Z,29.95
2022-10-11T21:11:44.331Z,33.20
2022-10-11T21:14:11.043Z,31.55
2022-10-11T21:16:37.618Z,32.58
2022-10-11T21:19:04.291Z,28.88
2022-10-11T21:21:32.201Z,30.15
2022-10-11T21:24:00.436Z,29.73
2022-10-11T21:26:27.508Z,33.45
2022-10-11T21:28:54.289Z,31.95
2022-10-11T21:31:21.926Z,30.70
2022-10-11T21:33:49.036Z,34.67
2022-10-11T21:36:17.407Z,30.60
2022-10-11T21:38:46.007Z,32.05
2022-10-11T21:41:14.326Z,36.05
2022-10-11T21:43:41.359Z,30.60
2022-10-11T21:46:09.652Z,32.92
2022-10-11T21:48:36.419Z,37.00
2022-10-11T21:51:03.108Z,42.50
2022-10-11T21:53:29.844Z,49.67
2022-10-11T21:55:58.276Z,43.10
2022-10-11T21:58:24.927Z,42.35
2022-10-11T22:00:51.488Z,35.03
2022-10-11T22:03:18.050Z,39.15
2022-10-11T22:05:45.384Z,41.55
2022-10-11T22:08:12.198Z,44.25
2022-10-11T22:10:38.777Z,42.25
2022-10-11T22:13:06.926Z,47.83
2022-10-11T22:15:33.703Z,51.30
2022-10-11T22:18:00.303Z,49.47
2022-10-11T22:20:27.269Z,39.10
2022-10-11T22:22:53.815Z,45.10
2022-10-11T22:25:20.777Z,44.10
2022-10-11T22:27:47.351Z,43.80
2022-10-11T22:30:15.365Z,44.60
2022-10-11T22:32:41.906Z,43.90
2022-10-11T22:35:08.611Z,41.00
2022-10-11T22:37:35.276Z,42.17
2022-10-11T22:40:02.189Z,40.05
2022-10-11T22:42:29.011Z,34.22
2022-10-11T22:44:55.754Z,33.88
2022-10-11T22:47:23.747Z,32.90
2022-10-11T22:49:50.308Z,37.08
2022-10-11T22:52:16.879Z,37.72
2022-10-11T22:54:43.478Z,40.53
2022-10-11T22:57:10.023Z,33.92
2022-10-11T22:59:36.591Z,37.42
2022-10-11T23:02:03.140Z,35.28
2022-10-11T23:04:31.061Z,37.60
2022-10-11T23:07:01.301Z,34.65
2022-10-11T23:09:31.283Z,40.22
2022-10-11T23:11:57.977Z,31.95
2022-10-11T23:14:24.574Z,34.22
2022-10-11T23:16:51.542Z,38.33
2022-10-11T23:19:18.151Z,42.25
2022-10-11T23:21:46.567Z,36.30
2022-10-11T23:24:13.335Z,36.90
2022-10-11T23:26:39.910Z,35.50
2022-10-11T23:29:06.475Z,35.35
2022-10-11T23:31:33.015Z,36.22
2022-10-11T23:33:59.564Z,38.78
2022-10-11T23:36:26.266Z,33.88
2022-10-11T23:38:56.075Z,39.80
2022-10-11T23:41:24.140Z,39.85
2022-10-11T23:43:50.775Z,39.05
2022-10-11T23:46:17.482Z,39.13
2022-10-11T23:48:44.038Z,41.90
2022-10-11T23:51:10.803Z,36.67
2022-10-11T23:53:37.630Z,40.03
2022-10-11T23:56:06.416Z,39.70
2022-10-11T23:58:33.102Z,41.30
